createdAt,value
2016-11-27T10:18:23.876Z,1004.12
2016-11-27T10:19:23.879Z,1004.1
2016-11-27T10:20:23.886Z,1004.11
2016-11-27T10:21:23.895Z,1004.16
2016-11-27T10:22:23.905Z,1004.16
2016-11-27T10:23:23.915Z,1004.19
2016-11-27T10:24:23.925Z,1004.12
2016-11-27T10:25:23.936Z,1004.15
2016-11-27T10:26:23.945Z,1004.16
2016-11-27T10:27:23.955Z,1004.14
2016-11-27T10:28:23.966Z,1004.21
2016-11-27T10:29:23.978Z,1004.19
2016-11-27T10:30:23.988Z,1004.2
2016-11-27T10:31:23.999Z,1004.22
2016-11-27T10:32:24.015Z,1004.25
2016-11-27T10:33:24.024Z,1004.22
2016-11-27T10:34:24.036Z,1004.31
2016-11-27T10:35:24.048Z,1004.25
2016-11-27T10:36:24.060Z,1004.35
2016-11-27T10:37:24.073Z,1004.28
2016-11-27T10:38:24.084Z,1004.27
2016-11-27T10:39:24.100Z,1004.27
2016-11-27T10:40:24.110Z,1004.32
2016-11-27T10:41:24.122Z,1004.33
2016-11-27T10:42:24.136Z,1004.32
2016-11-27T10:43:24.149Z,1004.3
2016-11-27T10:44:24.162Z,1004.31
2016-11-27T10:45:24.175Z,1004.34
2016-11-27T10:46:24.189Z,1004.34
2016-11-27T10:47:24.202Z,1004.3
2016-11-27T10:48:24.216Z,1004.33
2016-11-27T10:49:24.227Z,1004.26
2016-11-27T10:50:24.243Z,1004.28
2016-11-27T10:51:24.255Z,1004.3
2016-11-27T10:52:24.271Z,1004.27
2016-11-27T10:53:24.284Z,1004.34
2016-11-27T10:54:24.299Z,1004.33
2016-11-27T10:55:24.311Z,1004.34
2016-11-27T10:56:24.327Z,1004.29
2016-11-27T10:57:24.339Z,1004.27
2016-11-27T10:58:24.353Z,1004.23
2016-11-27T10:59:24.371Z,1004.28
2016-11-27T11:00:24.382Z,1004.32
2016-11-27T11:01:24.398Z,1004.38
2016-11-27T11:02:24.411Z,1004.31
2016-11-27T11:03:24.426Z,1004.32
2016-11-27T11:04:24.440Z,1004.31
2016-11-27T11:05:24.455Z,1004.34
2016-11-27T11:06:24.472Z,1004.37
2016-11-27T11:07:24.485Z,1004.38
2016-11-27T11:08:24.499Z,1004.41
2016-11-27T11:09:24.515Z,1004.43
2016-11-27T11:10:24.529Z,1004.44
2016-11-27T11:11:24.543Z,1004.42
2016-11-27T11:12:24.556Z,1004.43
2016-11-27T11:13:24.573Z,1004.44
2016-11-27T11:14:24.588Z,1004.5
2016-11-27T11:15:24.601Z,1004.48
2016-11-27T11:16:24.615Z,1004.47
2016-11-27T11:17:24.637Z,1004.49
2016-11-27T11:18:24.646Z,1004.45
2016-11-27T11:19:24.661Z,1004.45
2016-11-27T11:20:24.675Z,1004.46
2016-11-27T11:21:24.691Z,1004.44
2016-11-27T11:22:24.705Z,1004.45
2016-11-27T11:23:24.722Z,1004.41
2016-11-27T11:24:24.735Z,1004.47
2016-11-27T11:25:24.751Z,1004.43
2016-11-27T11:26:24.767Z,1004.44
2016-11-27T11:27:24.784Z,1004.46
2016-11-27T11:28:24.797Z,1004.44
2016-11-27T11:29:24.811Z,1004.44
2016-11-27T11:30:24.826Z,1004.38
2016-11-27T11:31:24.842Z,1004.44
2016-11-27T11:32:24.858Z,1004.44
2016-11-27T11:33:24.873Z,1004.45
2016-11-27T11:34:24.890Z,1004.45
2016-11-27T11:35:24.902Z,1004.45
2016-11-27T11:36:24.918Z,1004.41
2016-11-27T11:37:24.932Z,1004.46
2016-11-27T11:38:24.949Z,1004.47
2016-11-27T11:39:24.964Z,1004.47
2016-11-27T11:40:24.981Z,1004.45
2016-11-27T11:41:24.995Z,1004.53
2016-11-27T11:42:25.211Z,1004.47
2016-11-27T11:43:25.028Z,1004.49
2016-11-27T11:44:25.040Z,1004.48
2016-11-27T11:45:25.057Z,1004.46
2016-11-27T11:46:25.072Z,1004.45
2016-11-27T11:47:25.088Z,1004.45
2016-11-27T11:48:25.103Z,1004.4
2016-11-27T11:49:25.118Z,1004.4
2016-11-27T11:50:25.133Z,1004.35
2016-11-27T11:51:25.150Z,1004.37
2016-11-27T11:52:25.167Z,1004.36
2016-11-27T11:53:25.181Z,1004.4
2016-11-27T11:54:25.197Z,1004.43
2016-11-27T11:55:25.212Z,1004.45
2016-11-27T11:56:25.239Z,1004.42
2016-11-27T11:57:25.245Z,1004.4
2016-11-27T11:58:25.260Z,1004.45
2016-11-27T11:59:25.275Z,1004.44
2016-11-27T12:00:25.291Z,1004.42
2016-11-27T12:01:25.328Z,1004.41
2016-11-27T12:02:25.323Z,1004.36
2016-11-27T12:03:25.339Z,1004.4
2016-11-27T12:04:25.357Z,1004.36
2016-11-27T12:05:25.372Z,1004.37
2016-11-27T12:06:25.386Z,1004.36
2016-11-27T12:07:25.401Z,1004.35
2016-11-27T12:08:25.418Z,1004.31
2016-11-27T12:09:25.435Z,1004.37
2016-11-27T12:10:25.449Z,1004.38
2016-11-27T12:11:25.466Z,1004.35
2016-11-27T12:12:25.484Z,1004.42
2016-11-27T12:13:25.497Z,1004.41
2016-11-27T12:14:25.514Z,1004.43
2016-11-27T12:15:25.530Z,1004.48
2016-11-27T12:16:25.546Z,1004.46
2016-11-27T12:17:25.561Z,1004.41
2016-11-27T12:18:25.577Z,1004.41
2016-11-27T12:19:25.593Z,1004.43
2016-11-27T12:20:25.611Z,1004.4
2016-11-27T12:21:25.626Z,1004.44
2016-11-27T12:22:25.642Z,1004.42
2016-11-27T12:23:25.657Z,1004.43
2016-11-27T12:24:25.673Z,1004.4
2016-11-27T12:25:25.711Z,1004.44
2016-11-27T12:26:25.705Z,1004.39
2016-11-27T12:27:25.722Z,1004.37
2016-11-27T12:28:25.737Z,1004.38
2016-11-27T12:29:25.754Z,1004.35
2016-11-27T12:30:25.770Z,1004.33
2016-11-27T12:31:25.786Z,1004.36
2016-11-27T12:32:25.801Z,1004.33
2016-11-27T12:33:25.819Z,1004.41
2016-11-27T12:34:25.833Z,1004.32
2016-11-27T12:35:25.850Z,1004.33
2016-11-27T12:36:25.866Z,1004.42
2016-11-27T12:37:25.882Z,1004.35
2016-11-27T12:38:25.902Z,1004.36
2016-11-27T12:39:25.914Z,1004.39
2016-11-27T12:40:25.930Z,1004.36
2016-11-27T12:41:25.947Z,1004.36
2016-11-27T12:42:25.963Z,1004.31
2016-11-27T12:43:25.978Z,1004.35
2016-11-27T12:44:25.994Z,1004.4
2016-11-27T12:45:26.044Z,1004.35
2016-11-27T12:46:26.026Z,1004.37
2016-11-27T12:47:26.043Z,1004.37
2016-11-27T12:48:26.060Z,1004.36
2016-11-27T12:49:26.077Z,1004.37
2016-11-27T12:50:26.092Z,1004.35
2016-11-27T12:51:26.108Z,1004.34
2016-11-27T12:52:26.127Z,1004.4
2016-11-27T12:53:26.141Z,1004.37
2016-11-27T12:54:26.156Z,1004.4
2016-11-27T12:55:26.179Z,1004.39
2016-11-27T12:56:26.190Z,1004.41
2016-11-27T12:57:26.206Z,1004.44
2016-11-27T12:58:26.222Z,1004.42
2016-11-27T12:59:26.238Z,1004.4
2016-11-27T13:00:26.259Z,1004.42
2016-11-27T13:01:26.271Z,1004.41
2016-11-27T13:02:26.289Z,1004.45
2016-11-27T13:03:26.306Z,1004.46
2016-11-27T13:04:26.324Z,1004.37
2016-11-27T13:05:26.337Z,1004.44
2016-11-27T13:06:26.353Z,1004.42
2016-11-27T13:07:26.374Z,1004.46
2016-11-27T13:08:26.386Z,1004.45
2016-11-27T13:09:26.401Z,1004.45
2016-11-27T13:10:26.419Z,1004.47
2016-11-27T13:11:26.436Z,1004.46
2016-11-27T13:12:26.451Z,1004.49
2016-11-27T13:13:26.468Z,1004.49
2016-11-27T13:14:26.485Z,1004.49
2016-11-27T13:15:26.501Z,1004.48
2016-11-27T13:16:26.517Z,1004.51
2016-11-27T13:17:26.533Z,1004.52
2016-11-27T13:18:26.550Z,1004.5
2016-11-27T13:19:26.566Z,1004.52
2016-11-27T13:20:26.584Z,1004.55
2016-11-27T13:21:26.598Z,1004.54
2016-11-27T13:22:26.615Z,1004.57
2016-11-27T13:23:26.631Z,1004.47
2016-11-27T13:24:26.648Z,1004.53
2016-11-27T13:25:26.677Z,1004.5
2016-11-27T13:26:26.682Z,1004.48
2016-11-27T13:27:26.706Z,1004.47
2016-11-27T13:28:26.721Z,1004.5
2016-11-27T13:29:26.734Z,1004.52
2016-11-27T13:30:26.747Z,1004.51
2016-11-27T13:31:26.764Z,1004.54
2016-11-27T13:32:26.781Z,1004.6
2016-11-27T13:33:26.797Z,1004.64
2016-11-27T13:34:26.814Z,1004.55
2016-11-27T13:35:26.830Z,1004.62
2016-11-27T13:36:26.847Z,1004.57
2016-11-27T13:37:26.862Z,1004.61
2016-11-27T13:38:26.878Z,1004.63
2016-11-27T13:39:26.897Z,1004.67
2016-11-27T13:40:26.913Z,1004.63
2016-11-27T13:41:26.927Z,1004.73
2016-11-27T13:42:26.943Z,1004.67
2016-11-27T13:43:26.961Z,1004.7
2016-11-27T13:44:26.982Z,1004.73
2016-11-27T13:45:26.993Z,1004.71
2016-11-27T13:46:27.010Z,1004.71
2016-11-27T13:47:27.033Z,1004.67
2016-11-27T13:48:27.041Z,1004.66
2016-11-27T13:49:27.057Z,1004.66
2016-11-27T13:50:27.080Z,1004.69
2016-11-27T13:51:27.092Z,1004.65
2016-11-27T13:52:27.106Z,1004.67
2016-11-27T13:53:27.123Z,1004.59
2016-11-27T13:54:27.141Z,1004.63
2016-11-27T13:55:27.156Z,1004.62
2016-11-27T13:56:27.173Z,1004.62
2016-11-27T13:57:27.188Z,1004.56
2016-11-27T13:58:27.203Z,1004.64
2016-11-27T13:59:27.220Z,1004.61
2016-11-27T14:00:27.237Z,1004.6
2016-11-27T14:01:27.257Z,1004.56
2016-11-27T14:02:27.272Z,1004.59
2016-11-27T14:03:27.284Z,1004.54
2016-11-27T14:04:27.301Z,1004.57
2016-11-27T14:05:27.330Z,1004.51
2016-11-27T14:06:27.334Z,1004.54
2016-11-27T14:07:27.353Z,1004.51
2016-11-27T14:08:27.369Z,1004.57
2016-11-27T14:09:27.381Z,1004.56
2016-11-27T14:10:27.397Z,1004.53
2016-11-27T14:11:27.415Z,1004.55
2016-11-27T14:12:27.434Z,1004.59
2016-11-27T14:13:27.446Z,1004.54
2016-11-27T14:14:27.462Z,1004.59
2016-11-27T14:15:27.480Z,1004.54
2016-11-27T14:16:27.494Z,1004.59
2016-11-27T14:17:27.511Z,1004.62
2016-11-27T14:18:27.527Z,1004.6
2016-11-27T14:19:27.544Z,1004.65
2016-11-27T14:20:27.559Z,1004.65
2016-11-27T14:21:27.575Z,1004.69
2016-11-27T14:22:27.591Z,1004.71
2016-11-27T14:23:27.606Z,1004.76
2016-11-27T14:24:27.715Z,1004.79
2016-11-27T14:25:27.747Z,1004.79
2016-11-27T14:26:27.745Z,1004.83
2016-11-27T14:27:27.753Z,1004.8
2016-11-27T14:28:27.899Z,1004.83
2016-11-27T14:29:27.771Z,1004.84
2016-11-27T14:30:27.779Z,1004.89
2016-11-27T14:31:27.788Z,1004.88
2016-11-27T14:32:27.788Z,1004.87
2016-11-27T14:33:28.097Z,1004.91
2016-11-27T14:34:27.808Z,1004.87
2016-11-27T14:35:27.813Z,1004.92
2016-11-27T14:36:27.821Z,1004.9
2016-11-27T14:37:27.880Z,1004.95
2016-11-27T14:38:28.029Z,1004.9
2016-11-27T14:39:27.897Z,1004.95
2016-11-27T14:40:27.905Z,1004.91
2016-11-27T14:41:27.904Z,1004.91
2016-11-27T14:42:27.914Z,1004.94
2016-11-27T14:43:28.074Z,1004.94
2016-11-27T14:44:27.940Z,1004.94
2016-11-27T14:45:28.057Z,1004.95
2016-11-27T14:46:28.065Z,1004.95
2016-11-27T14:47:28.064Z,1004.93
2016-11-27T14:48:28.073Z,1004.96
2016-11-27T14:49:28.021Z,1004.99
2016-11-27T14:50:28.035Z,1004.95
2016-11-27T14:51:28.050Z,1004.97
2016-11-27T14:52:28.068Z,1005
2016-11-27T14:53:28.088Z,1005.01
2016-11-27T14:54:28.097Z,1005.01
2016-11-27T14:55:28.113Z,1005
2016-11-27T14:56:28.130Z,1005.06
2016-11-27T14:57:28.146Z,1005.08
2016-11-27T14:58:28.160Z,1005.04
2016-11-27T14:59:28.176Z,1005.08
2016-11-27T15:00:28.193Z,1005.07
2016-11-27T15:01:28.208Z,1005.06
2016-11-27T15:02:28.225Z,1005.05
2016-11-27T15:03:28.241Z,1005.13
2016-11-27T15:04:28.258Z,1005.15
2016-11-27T15:05:28.272Z,1005.16
2016-11-27T15:06:28.288Z,1005.18
2016-11-27T15:07:28.303Z,1005.16
2016-11-27T15:08:28.320Z,1005.15
2016-11-27T15:09:28.334Z,1005.18
2016-11-27T15:10:28.351Z,1005.16
2016-11-27T15:11:28.366Z,1005.18
2016-11-27T15:12:28.380Z,1005.19
2016-11-27T15:13:28.397Z,1005.17
2016-11-27T15:14:28.413Z,1005.15
2016-11-27T15:15:28.428Z,1005.13
2016-11-27T15:16:28.446Z,1005.15
2016-11-27T15:17:28.465Z,1005.12
2016-11-27T15:18:28.476Z,1005.16
2016-11-27T15:19:28.492Z,1005.15
2016-11-27T15:20:28.507Z,1005.11
2016-11-27T15:21:28.523Z,1005.16
2016-11-27T15:22:28.539Z,1005.2
2016-11-27T15:23:28.554Z,1005.18
2016-11-27T15:24:28.569Z,1005.22
2016-11-27T15:25:28.587Z,1005.22
2016-11-27T15:26:28.600Z,1005.24
2016-11-27T15:27:28.616Z,1005.24
2016-11-27T15:28:28.631Z,1005.27
2016-11-27T15:29:28.648Z,1005.28
2016-11-27T15:30:28.663Z,1005.3
2016-11-27T15:31:28.677Z,1005.26
2016-11-27T15:32:28.694Z,1005.29
2016-11-27T15:33:28.713Z,1005.32
2016-11-27T15:34:28.777Z,1005.34
2016-11-27T15:35:28.740Z,1005.33
2016-11-27T15:36:28.755Z,1005.3
2016-11-27T15:37:28.771Z,1005.32
2016-11-27T15:38:28.786Z,1005.37
2016-11-27T15:39:28.802Z,1005.4
2016-11-27T15:40:28.818Z,1005.37
2016-11-27T15:41:28.833Z,1005.38
2016-11-27T15:42:28.849Z,1005.4
2016-11-27T15:43:28.864Z,1005.4
2016-11-27T15:44:28.882Z,1005.43
2016-11-27T15:45:28.893Z,1005.48
2016-11-27T15:46:28.910Z,1005.48
2016-11-27T15:47:28.931Z,1005.55
2016-11-27T15:48:28.941Z,1005.53
2016-11-27T15:49:28.956Z,1005.56
2016-11-27T15:50:28.971Z,1005.61
2016-11-27T15:51:28.988Z,1005.65
2016-11-27T15:52:29.002Z,1005.68
2016-11-27T15:53:29.016Z,1005.71
2016-11-27T15:54:29.039Z,1005.76
2016-11-27T15:55:29.048Z,1005.76
2016-11-27T15:56:29.063Z,1005.77
2016-11-27T15:57:29.079Z,1005.77
2016-11-27T15:58:29.094Z,1005.77
2016-11-27T15:59:29.108Z,1005.83
2016-11-27T16:00:29.123Z,1005.81
2016-11-27T16:01:29.141Z,1005.86
2016-11-27T16:02:29.155Z,1005.87
2016-11-27T16:03:29.170Z,1005.83
2016-11-27T16:04:29.185Z,1005.87
2016-11-27T16:05:29.215Z,1005.83
2016-11-27T16:06:29.216Z,1005.86
2016-11-27T16:07:29.229Z,1005.86
2016-11-27T16:08:29.247Z,1005.88
2016-11-27T16:09:29.261Z,1005.87
2016-11-27T16:10:29.277Z,1005.89
2016-11-27T16:11:29.291Z,1005.92
2016-11-27T16:12:29.305Z,1005.9
2016-11-27T16:13:29.321Z,1005.94
2016-11-27T16:14:29.336Z,1005.97
2016-11-27T16:15:29.351Z,1005.98
2016-11-27T16:16:29.367Z,1005.97
2016-11-27T16:17:29.381Z,1005.94
2016-11-27T16:18:29.401Z,1005.96
2016-11-27T16:19:29.411Z,1005.98
2016-11-27T16:20:29.428Z,1005.97
2016-11-27T16:21:29.445Z,1005.98
2016-11-27T16:22:29.457Z,1006
2016-11-27T16:23:29.472Z,1006.01
2016-11-27T16:24:29.490Z,1006.01
2016-11-27T16:25:29.503Z,1006.05
2016-11-27T16:26:29.516Z,1006.09
2016-11-27T16:27:29.531Z,1006.1
2016-11-27T16:28:29.547Z,1006.11
2016-11-27T16:29:29.562Z,1006.07
2016-11-27T16:30:29.577Z,1006.1
2016-11-27T16:31:29.592Z,1006.06
2016-11-27T16:32:29.608Z,1006.06
2016-11-27T16:33:29.622Z,1006.08
2016-11-27T16:34:29.636Z,1006.06
2016-11-27T16:35:29.660Z,1006.09
2016-11-27T16:36:29.667Z,1006.05
2016-11-27T16:37:29.681Z,1006.1
2016-11-27T16:38:29.697Z,1006.08
2016-11-27T16:39:29.712Z,1006.09
2016-11-27T16:40:29.727Z,1006.08
2016-11-27T16:41:29.741Z,1006.13
2016-11-27T16:42:29.757Z,1006.18
2016-11-27T16:43:29.774Z,1006.17
2016-11-27T16:44:29.786Z,1006.19
2016-11-27T16:45:29.802Z,1006.22
2016-11-27T16:46:29.816Z,1006.2
2016-11-27T16:47:29.836Z,1006.2
2016-11-27T16:48:29.847Z,1006.22
2016-11-27T16:49:29.860Z,1006.27
2016-11-27T16:50:29.877Z,1006.27
2016-11-27T16:51:29.890Z,1006.3
2016-11-27T16:52:29.906Z,1006.27
2016-11-27T16:53:29.920Z,1006.29
2016-11-27T16:54:29.934Z,1006.27
2016-11-27T16:55:29.949Z,1006.27
2016-11-27T16:56:29.965Z,1006.37
2016-11-27T16:57:29.979Z,1006.3
2016-11-27T16:58:29.994Z,1006.39
2016-11-27T16:59:30.009Z,1006.37
2016-11-27T17:00:30.023Z,1006.42
2016-11-27T17:01:30.038Z,1006.45
2016-11-27T17:02:30.052Z,1006.47
2016-11-27T17:03:30.072Z,1006.45
2016-11-27T17:04:30.089Z,1006.46
2016-11-27T17:05:30.107Z,1006.47
2016-11-27T17:06:30.113Z,1006.48
2016-11-27T17:07:30.125Z,1006.48
2016-11-27T17:08:30.140Z,1006.49
2016-11-27T17:09:30.154Z,1006.52
2016-11-27T17:10:30.170Z,1006.51
2016-11-27T17:11:30.185Z,1006.52
2016-11-27T17:12:30.203Z,1006.52
2016-11-27T17:13:30.212Z,1006.58
2016-11-27T17:14:30.228Z,1006.62
2016-11-27T17:15:30.245Z,1006.63
2016-11-27T17:16:30.258Z,1006.66
2016-11-27T17:17:30.270Z,1006.67
2016-11-27T17:18:30.287Z,1006.67
2016-11-27T17:19:30.301Z,1006.68
2016-11-27T17:20:30.315Z,1006.68
2016-11-27T17:21:30.331Z,1006.68
2016-11-27T17:22:30.344Z,1006.71
2016-11-27T17:23:30.359Z,1006.73
2016-11-27T17:24:30.374Z,1006.69
2016-11-27T17:25:30.387Z,1006.75
2016-11-27T17:26:30.402Z,1006.78
2016-11-27T17:27:30.417Z,1006.74
2016-11-27T17:28:30.432Z,1006.8
2016-11-27T17:29:30.445Z,1006.72
2016-11-27T17:30:30.460Z,1006.73
2016-11-27T17:31:30.474Z,1006.75
2016-11-27T17:32:30.489Z,1006.78
2016-11-27T17:33:30.504Z,1006.77
2016-11-27T17:34:30.518Z,1006.72
2016-11-27T17:35:30.539Z,1006.75
2016-11-27T17:36:30.546Z,1006.76
2016-11-27T17:37:30.562Z,1006.72
2016-11-27T17:38:30.575Z,1006.74
2016-11-27T17:39:30.590Z,1006.7
2016-11-27T17:40:30.605Z,1006.77
2016-11-27T17:41:30.619Z,1006.67
2016-11-27T17:42:30.632Z,1006.75
2016-11-27T17:43:30.646Z,1006.77
2016-11-27T17:44:30.661Z,1006.8
2016-11-27T17:45:30.676Z,1006.78
2016-11-27T17:46:30.690Z,1006.81
2016-11-27T17:47:30.706Z,1006.78
2016-11-27T17:48:30.719Z,1006.81
2016-11-27T17:49:30.734Z,1006.78
2016-11-27T17:50:30.748Z,1006.84
2016-11-27T17:51:30.761Z,1006.9
2016-11-27T17:52:30.775Z,1006.86
2016-11-27T17:53:30.790Z,1006.88
2016-11-27T17:54:30.803Z,1006.9
2016-11-27T17:55:30.819Z,1006.87
2016-11-27T17:56:30.832Z,1006.91
2016-11-27T17:57:30.846Z,1006.91
2016-11-27T17:58:30.861Z,1006.86
2016-11-27T17:59:30.875Z,1006.92
2016-11-27T18:00:30.890Z,1006.92
2016-11-27T18:01:30.902Z,1006.92
2016-11-27T18:02:30.923Z,1006.92
2016-11-27T18:03:30.932Z,1006.97
2016-11-27T18:04:30.945Z,1007.03
2016-11-27T18:05:30.961Z,1006.99
2016-11-27T18:06:30.974Z,1007.04
2016-11-27T18:07:30.992Z,1007.01
2016-11-27T18:08:31.001Z,1007.01
2016-11-27T18:09:31.020Z,1007.05
2016-11-27T18:10:31.034Z,1007.05
2016-11-27T18:11:31.045Z,1007.08
2016-11-27T18:12:31.060Z,1007.05
2016-11-27T18:13:31.074Z,1007.08
2016-11-27T18:14:31.089Z,1007.08
2016-11-27T18:15:31.102Z,1007.13
2016-11-27T18:16:31.116Z,1007.13
2016-11-27T18:17:31.131Z,1007.08
2016-11-27T18:18:31.144Z,1007.06
2016-11-27T18:19:31.161Z,1007.08
2016-11-27T18:20:31.176Z,1007.11
2016-11-27T18:21:31.188Z,1007.16
2016-11-27T18:22:31.201Z,1007.2
2016-11-27T18:23:31.216Z,1007.15
2016-11-27T18:24:31.230Z,1007.21
2016-11-27T18:25:31.245Z,1007.21
2016-11-27T18:26:31.259Z,1007.16
2016-11-27T18:27:31.272Z,1007.25
2016-11-27T18:28:31.286Z,1007.21
2016-11-27T18:29:31.300Z,1007.25
2016-11-27T18:30:31.314Z,1007.26
2016-11-27T18:31:31.328Z,1007.24
2016-11-27T18:32:31.343Z,1007.28
2016-11-27T18:33:31.357Z,1007.35
2016-11-27T18:34:31.370Z,1007.33
2016-11-27T18:35:31.385Z,1007.36
2016-11-27T18:36:31.398Z,1007.33
2016-11-27T18:37:31.413Z,1007.37
2016-11-27T18:38:31.431Z,1007.4
2016-11-27T18:39:31.441Z,1007.45
2016-11-27T18:40:31.454Z,1007.42
2016-11-27T18:41:31.469Z,1007.48
2016-11-27T18:42:31.483Z,1007.45
2016-11-27T18:43:31.496Z,1007.41
2016-11-27T18:44:31.510Z,1007.45
2016-11-27T18:45:31.525Z,1007.53
2016-11-27T18:46:31.540Z,1007.46
2016-11-27T18:47:31.556Z,1007.53
2016-11-27T18:48:31.567Z,1007.53
2016-11-27T18:49:31.580Z,1007.56
2016-11-27T18:50:31.595Z,1007.56
2016-11-27T18:51:31.608Z,1007.59
2016-11-27T18:52:31.624Z,1007.58
2016-11-27T18:53:31.635Z,1007.56
2016-11-27T18:54:31.651Z,1007.54
2016-11-27T18:55:31.664Z,1007.53
2016-11-27T18:56:31.677Z,1007.54
2016-11-27T18:57:31.692Z,1007.57
2016-11-27T18:58:31.708Z,1007.55
2016-11-27T18:59:31.719Z,1007.59
2016-11-27T19:00:31.733Z,1007.59
2016-11-27T19:01:31.755Z,1007.53
2016-11-27T19:02:31.762Z,1007.55
2016-11-27T19:03:31.774Z,1007.58
2016-11-27T19:04:31.789Z,1007.63
2016-11-27T19:05:31.806Z,1007.64
2016-11-27T19:06:31.817Z,1007.65
2016-11-27T19:07:31.857Z,1007.61
2016-11-27T19:08:31.845Z,1007.68
2016-11-27T19:09:31.858Z,1007.72
2016-11-27T19:10:31.872Z,1007.71
2016-11-27T19:11:31.886Z,1007.78
2016-11-27T19:12:31.901Z,1007.71
2016-11-27T19:13:31.915Z,1007.73
2016-11-27T19:14:31.927Z,1007.75
2016-11-27T19:15:31.942Z,1007.78
2016-11-27T19:16:31.956Z,1007.77
2016-11-27T19:17:31.969Z,1007.79
2016-11-27T19:18:31.986Z,1007.8
2016-11-27T19:19:31.998Z,1007.8
2016-11-27T19:20:32.012Z,1007.84
2016-11-27T19:21:32.024Z,1007.88
2016-11-27T19:22:32.040Z,1007.85
2016-11-27T19:23:32.052Z,1007.87
2016-11-27T19:24:32.077Z,1007.86
2016-11-27T19:25:32.079Z,1007.89
2016-11-27T19:26:32.093Z,1007.92
2016-11-27T19:27:32.108Z,1007.89
2016-11-27T19:28:32.119Z,1007.89
2016-11-27T19:29:32.135Z,1007.91
2016-11-27T19:30:32.147Z,1007.93
2016-11-27T19:31:32.161Z,1007.92
2016-11-27T19:32:32.184Z,1007.94
2016-11-27T19:33:32.188Z,1007.99
2016-11-27T19:34:32.202Z,1008.02
2016-11-27T19:35:32.218Z,1007.99
2016-11-27T19:36:32.230Z,1008.01
2016-11-27T19:37:32.242Z,1008.04
2016-11-27T19:38:32.257Z,1008.07
2016-11-27T19:39:32.271Z,1008.07
2016-11-27T19:40:32.284Z,1008.11
2016-11-27T19:41:32.298Z,1008.04
2016-11-27T19:42:32.312Z,1008.06
2016-11-27T19:43:32.324Z,1008.09
2016-11-27T19:44:32.338Z,1008.12
2016-11-27T19:45:32.352Z,1008.08
2016-11-27T19:46:32.366Z,1008.11
2016-11-27T19:47:32.387Z,1008.14
2016-11-27T19:48:32.393Z,1008.15
2016-11-27T19:49:32.408Z,1008.19
2016-11-27T19:50:32.420Z,1008.22
2016-11-27T19:51:32.434Z,1008.22
2016-11-27T19:52:32.450Z,1008.22
2016-11-27T19:53:32.461Z,1008.23
2016-11-27T19:54:32.475Z,1008.28
2016-11-27T19:55:32.489Z,1008.3
2016-11-27T19:56:32.509Z,1008.31
2016-11-27T19:57:32.514Z,1008.35
2016-11-27T19:58:32.528Z,1008.38
2016-11-27T19:59:32.543Z,1008.38
2016-11-27T20:00:32.557Z,1008.38
2016-11-27T20:01:32.570Z,1008.4
2016-11-27T20:02:32.585Z,1008.4
2016-11-27T20:03:32.595Z,1008.38
2016-11-27T20:04:32.612Z,1008.43
2016-11-27T20:05:32.623Z,1008.46
2016-11-27T20:06:32.637Z,1008.4
2016-11-27T20:07:32.649Z,1008.42
2016-11-27T20:08:32.661Z,1008.4
2016-11-27T20:09:32.677Z,1008.4
2016-11-27T20:10:32.690Z,1008.4
2016-11-27T20:11:32.704Z,1008.4
2016-11-27T20:12:32.717Z,1008.42
2016-11-27T20:13:32.729Z,1008.46
2016-11-27T20:14:32.744Z,1008.49
2016-11-27T20:15:32.756Z,1008.49
2016-11-27T20:16:32.770Z,1008.46
2016-11-27T20:17:32.783Z,1008.5
2016-11-27T20:18:32.797Z,1008.45
2016-11-27T20:19:32.811Z,1008.52
2016-11-27T20:20:32.822Z,1008.56
2016-11-27T20:21:32.837Z,1008.56
2016-11-27T20:22:32.850Z,1008.55
2016-11-27T20:23:32.863Z,1008.53
2016-11-27T20:24:32.877Z,1008.59
2016-11-27T20:25:32.890Z,1008.57
2016-11-27T20:26:32.904Z,1008.58
2016-11-27T20:27:32.917Z,1008.57
2016-11-27T20:28:32.932Z,1008.57
2016-11-27T20:29:32.944Z,1008.58
2016-11-27T20:30:32.958Z,1008.59
2016-11-27T20:31:32.971Z,1008.61
2016-11-27T20:32:32.984Z,1008.61
2016-11-27T20:33:32.998Z,1008.64
2016-11-27T20:34:33.009Z,1008.61
2016-11-27T20:35:33.024Z,1008.62
2016-11-27T20:36:33.037Z,1008.61
2016-11-27T20:37:33.051Z,1008.63
2016-11-27T20:38:33.063Z,1008.65
2016-11-27T20:39:33.078Z,1008.63
2016-11-27T20:40:33.091Z,1008.65
2016-11-27T20:41:33.104Z,1008.63
2016-11-27T20:42:33.117Z,1008.63
2016-11-27T20:43:33.131Z,1008.7
2016-11-27T20:44:33.144Z,1008.7
2016-11-27T20:45:33.159Z,1008.71
2016-11-27T20:46:33.171Z,1008.7
2016-11-27T20:47:33.183Z,1008.73
2016-11-27T20:48:33.198Z,1008.74
2016-11-27T20:49:33.212Z,1008.75
2016-11-27T20:50:33.225Z,1008.78
2016-11-27T20:51:33.236Z,1008.74
2016-11-27T20:52:33.255Z,1008.76
2016-11-27T20:53:33.265Z,1008.76
2016-11-27T20:54:33.280Z,1008.77
2016-11-27T20:55:33.294Z,1008.75
2016-11-27T20:56:33.306Z,1008.79
2016-11-27T20:57:33.316Z,1008.78
2016-11-27T20:58:33.331Z,1008.77
2016-11-27T20:59:33.347Z,1008.75
2016-11-27T21:00:33.357Z,1008.75
2016-11-27T21:01:33.369Z,1008.76
2016-11-27T21:02:33.384Z,1008.75
2016-11-27T21:03:33.395Z,1008.71
2016-11-27T21:04:33.411Z,1008.73
2016-11-27T21:05:33.425Z,1008.71
2016-11-27T21:06:33.436Z,1008.78
2016-11-27T21:07:33.450Z,1008.74
2016-11-27T21:08:33.466Z,1008.74
2016-11-27T21:09:33.480Z,1008.8
2016-11-27T21:10:33.491Z,1008.7
2016-11-27T21:11:33.502Z,1008.73
2016-11-27T21:12:33.516Z,1008.72
2016-11-27T21:13:33.531Z,1008.71
2016-11-27T21:14:33.543Z,1008.77
2016-11-27T21:15:33.557Z,1008.75
2016-11-27T21:16:33.570Z,1008.79
2016-11-27T21:17:33.583Z,1008.78
2016-11-27T21:18:33.597Z,1008.8
2016-11-27T21:19:33.613Z,1008.77
2016-11-27T21:20:33.630Z,1008.77
2016-11-27T21:21:33.637Z,1008.83
2016-11-27T21:22:33.652Z,1008.85
2016-11-27T21:23:33.665Z,1008.83
2016-11-27T21:24:33.680Z,1008.86
2016-11-27T21:25:33.692Z,1008.88
2016-11-27T21:26:33.705Z,1008.9
2016-11-27T21:27:33.718Z,1008.89
2016-11-27T21:28:33.736Z,1008.89
2016-11-27T21:29:33.744Z,1008.92
2016-11-27T21:30:33.757Z,1008.92
2016-11-27T21:31:33.771Z,1008.9
2016-11-27T21:32:33.785Z,1008.9
2016-11-27T21:33:33.799Z,1008.9
2016-11-27T21:34:33.812Z,1008.97
2016-11-27T21:35:33.827Z,1008.94
2016-11-27T21:36:33.840Z,1008.93
2016-11-27T21:37:33.858Z,1008.96
2016-11-27T21:38:33.865Z,1008.98
2016-11-27T21:39:33.881Z,1008.99
2016-11-27T21:40:33.893Z,1008.94
2016-11-27T21:41:33.905Z,1008.99
2016-11-27T21:42:33.918Z,1008.97
2016-11-27T21:43:33.929Z,1008.97
2016-11-27T21:44:33.944Z,1009.03
2016-11-27T21:45:33.958Z,1008.99
2016-11-27T21:46:34.020Z,1009.01
2016-11-27T21:47:33.982Z,1009
2016-11-27T21:48:33.996Z,1009.01
2016-11-27T21:49:34.013Z,1009
2016-11-27T21:50:34.027Z,1008.98
2016-11-27T21:51:34.035Z,1008.99
2016-11-27T21:52:34.050Z,1009.05
2016-11-27T21:53:34.063Z,1009.01
2016-11-27T21:54:34.074Z,1009.02
2016-11-27T21:55:34.093Z,1009.03
2016-11-27T21:56:34.102Z,1009.06
2016-11-27T21:57:34.118Z,1009.03
2016-11-27T21:58:34.130Z,1009.03
2016-11-27T21:59:34.144Z,1009.05
2016-11-27T22:00:34.156Z,1009.05
2016-11-27T22:01:34.167Z,1009.07
2016-11-27T22:02:34.179Z,1009.04
2016-11-27T22:03:34.194Z,1009.06
2016-11-27T22:04:34.213Z,1009.07
2016-11-27T22:05:34.220Z,1009.09
2016-11-27T22:06:34.236Z,1009.04
2016-11-27T22:07:34.247Z,1009.08
2016-11-27T22:08:34.259Z,1009.05
2016-11-27T22:09:34.272Z,1009.08
2016-11-27T22:10:34.286Z,1009.06
2016-11-27T22:11:34.299Z,1009.07
2016-11-27T22:12:34.321Z,1009.05
2016-11-27T22:13:34.326Z,1009.08
2016-11-27T22:14:34.338Z,1009.1
2016-11-27T22:15:34.352Z,1009.07
2016-11-27T22:16:34.365Z,1009.09
2016-11-27T22:17:34.379Z,1009.13
2016-11-27T22:18:34.391Z,1009.11
2016-11-27T22:19:34.405Z,1009.1
2016-11-27T22:20:34.418Z,1009.1
2016-11-27T22:21:34.430Z,1009.11
2016-11-27T22:22:34.445Z,1009.11
2016-11-27T22:23:34.457Z,1009.11
2016-11-27T22:24:34.469Z,1009.11
2016-11-27T22:25:34.482Z,1009.13
2016-11-27T22:26:34.496Z,1009.14